メインページ
METAR-TAF:

METAR-TAF

空港 :

ポートエンジェルス, ワシントン, アメリカ合衆国

緯度: 48-07-20N, 経度: 123-30-19W, 海抜: 87m

現時点の気象観測

当レポートは33分前の15:53(UTC)に作成
気温 14°C
湿度 82%
気圧 1015 hPa
晴天

METAR: KCLM 111553Z AUTO CLR 14/11 A2996 RMK AO2 SLP147 T01390111 PWINO $

時間: 09:26 (16:26 UTC)

予報

当レポートは1時間25分前の15:01(UTC)に作成
予報は11日の 15時(UTC)から 12日の 12時(UTC)まで有効
西の風 5kt
視程: 10km
晴天
11日の 1700時(UTC)から
北西の風 10kt
視程: 10km
高度1500ftの雲は散在している
高度25000ftの雲は散在している
11日の 2000時(UTC)から
西/北西の風 14kt、最大20ktの突風を伴う
視程: 10km
高度25000ftの雲は散在している
12日の 0800時(UTC)から
西の風 7kt
視程: 10km
高度25000ftの千切れ雲あり

TAF: KCLM 111501Z 1115/1212 28005KT P6SM SKC FM111700 32010KT P6SM SCT015 SCT250 FM112000 30014G20KT P6SM SCT250 FM120800 27007KT P6SM BKN250

4,000以上の空港の気象観測と天気予報(METAR報とTAF報)

利用可能な観測所は地図上に黄色い丸と赤い丸で示す。

丸の上にカーソルを重ねると観測所名を参照できる。

次にクリックすると気象観測と天気予報を参照できる。

マップの切り替え:黒色「×」印の緑ボタンをクリックして拡大、「-」印の緑ボタンをクリックして縮小、緑色の三角印をクリックして隣りの地図に切り替え


METAR-TAF: